Time;durP1;ratioP1;P1;durP2;ratioP2;P2;SDS_P1;SDS_P2;PMS_P1;PMS_P2;Temp;Humidity;BMP_temperature;BMP_pressure;BME280_temperature;BME280_humidity;BME280_pressure;Samples;Min_cycle;Max_cycle;Signal;HPM_P1;HPM_P2
2022/05/25 00:01:14;;;;;;;8.10;2.30;;;;;;;17.77;100.00;93872.06;4942551;29;20035;-89
2022/05/25 00:03:40;;;;;;;6.70;2.60;;;;;;;17.79;100.00;93869.88;4942333;29;20035;-88
2022/05/25 00:06:08;;;;;;;14.43;2.53;;;;;;;17.77;100.00;93872.84;4926395;29;20027;-88
2022/05/25 00:08:33;;;;;;;8.82;2.70;;;;;;;17.80;100.00;93869.53;4942102;29;20063;-88
2022/05/25 00:10:59;;;;;;;6.97;3.10;;;;;;;17.40;100.00;93871.88;4959216;29;20042;-88
2022/05/25 00:13:25;;;;;;;7.47;2.55;;;;;;;17.60;100.00;93878.28;4942177;29;20043;-89
2022/05/25 00:15:50;;;;;;;7.50;2.72;;;;;;;17.69;100.00;93878.97;4941649;29;20035;-89
2022/05/25 00:18:16;;;;;;;8.73;2.70;;;;;;;17.58;100.00;93878.59;4941607;29;20038;-89
2022/05/25 00:20:42;;;;;;;6.50;2.10;;;;;;;17.63;100.00;93883.69;4941811;29;20444;-89
2022/05/25 00:23:08;;;;;;;12.85;2.85;;;;;;;17.63;100.00;93875.75;4925651;29;20032;-89
2022/05/25 00:25:39;;;;;;;9.20;2.83;;;;;;;17.29;100.00;93880.19;4942006;29;20035;-89
2022/05/25 00:28:11;;;;;;;9.55;2.85;;;;;;;17.14;100.00;93883.41;4941140;29;20035;-89
2022/05/25 00:30:37;;;;;;;9.57;2.67;;;;;;;17.12;100.00;93883.72;4947419;29;20440;-89
2022/05/25 00:33:03;;;;;;;7.38;2.72;;;;;;;17.08;100.00;93880.16;4943430;28;20058;-89
2022/05/25 00:35:31;;;;;;;7.38;2.65;;;;;;;17.18;100.00;93886.97;4951210;28;20468;-89
2022/05/25 00:37:57;;;;;;;8.63;2.80;;;;;;;17.17;100.00;93878.25;4957689;28;20170;-89
2022/05/25 00:40:26;;;;;;;14.60;3.80;;;;;;;17.10;100.00;93876.13;4948201;28;20121;-89
2022/05/25 00:42:52;;;;;;;7.57;2.40;;;;;;;17.10;100.00;93880.63;4950493;29;20071;-89
2022/05/25 00:45:18;;;;;;;11.10;2.75;;;;;;;16.98;100.00;93873.34;4926034;29;20133;-89
2022/05/25 00:47:46;;;;;;;8.85;3.20;;;;;;;16.85;100.00;93877.00;4941513;29;20050;-89
2022/05/25 00:50:14;;;;;;;6.25;2.67;;;;;;;16.97;100.00;93877.09;4926217;29;20046;-89
2022/05/25 00:52:42;;;;;;;6.55;2.33;;;;;;;17.01;100.00;93875.38;4926013;29;20038;-89
2022/05/25 00:55:08;;;;;;;8.13;2.63;;;;;;;16.96;100.00;93880.84;4926113;29;20027;-88
2022/05/25 00:57:43;;;;;;;11.55;2.65;;;;;;;16.70;100.00;93880.94;4941560;29;20086;-89
2022/05/25 01:00:11;;;;;;;5.18;2.58;;;;;;;16.64;100.00;93882.97;4925754;29;20126;-89
2022/05/25 01:02:43;;;;;;;8.55;2.67;;;;;;;16.60;100.00;93882.84;4925650;29;20503;-88
2022/05/25 01:05:10;;;;;;;7.88;2.63;;;;;;;16.79;100.00;93889.63;4941322;29;20027;-88
2022/05/25 01:08:01;;;;;;;10.07;2.60;;;;;;;16.87;100.00;93893.31;4941384;29;20039;-88
2022/05/25 01:11:11;;;;;;;15.90;3.22;;;;;;;16.66;100.00;93894.81;4941898;29;20031;-88
2022/05/25 01:13:43;;;;;;;8.50;2.70;;;;;;;16.33;100.00;93900.66;4958174;29;20034;-89
2022/05/25 01:16:13;;;;;;;8.25;2.80;;;;;;;16.42;100.00;93897.22;4958615;29;20097;-89
2022/05/25 01:18:38;;;;;;;6.53;3.00;;;;;;;16.59;100.00;93901.69;4941208;29;20027;-88
2022/05/25 01:21:14;;;;;;;9.73;2.70;;;;;;;16.45;100.00;93905.28;4958626;29;20035;-88
2022/05/25 01:24:10;;;;;;;8.60;2.75;;;;;;;16.38;100.00;93905.78;4957898;29;20038;-88
2022/05/25 01:26:54;;;;;;;8.93;2.80;;;;;;;16.50;100.00;93918.34;4941679;29;20151;-88
2022/05/25 01:29:50;;;;;;;8.85;2.70;;;;;;;16.47;100.00;93903.09;4961583;28;20035;-88
2022/05/25 01:33:01;;;;;;;10.40;2.88;;;;;;;16.25;100.00;93907.53;4962198;29;20038;-88
2022/05/25 01:35:56;;;;;;;7.25;2.65;;;;;;;16.43;100.00;93907.47;4961448;29;20086;-88
2022/05/25 01:38:35;;;;;;;5.63;2.92;;;;;;;16.62;100.00;93906.31;4945214;29;20050;-88
2022/05/25 01:41:20;;;;;;;21.42;3.30;;;;;;;16.54;100.00;93890.19;4944598;29;20027;-89
2022/05/25 01:43:58;;;;;;;8.88;3.15;;;;;;;16.42;100.00;93892.72;4960702;29;20046;-89
2022/05/25 01:46:34;;;;;;;5.78;2.85;;;;;;;16.35;100.00;93897.69;4961796;29;20054;-88
2022/05/25 01:49:04;;;;;;;6.68;2.67;;;;;;;16.52;100.00;93889.72;4944574;29;20433;-89
2022/05/25 01:52:06;;;;;;;7.88;2.80;;;;;;;16.56;100.00;93897.03;4928595;29;20341;-89
2022/05/25 01:54:35;;;;;;;7.40;2.90;;;;;;;16.54;100.00;93900.75;4944241;29;20062;-89
2022/05/25 01:57:05;;;;;;;8.52;2.45;;;;;;;16.58;100.00;93905.41;4944405;29;20086;-89
2022/05/25 01:59:31;;;;;;;11.38;2.53;;;;;;;16.53;100.00;93899.22;4944516;29;20027;-89
2022/05/25 02:04:59;;;;;;;10.27;3.30;;;;;;;16.39;100.00;93894.09;4917085;29;20067;-89
2022/05/25 02:07:47;;;;;;;10.50;2.65;;;;;;;16.54;100.00;93890.19;4944144;29;20038;-89
2022/05/25 02:10:34;;;;;;;11.75;3.38;;;;;;;16.25;100.00;93902.25;4944006;29;20069;-89
2022/05/25 02:13:11;;;;;;;4.95;2.50;;;;;;;16.18;100.00;93894.00;4960948;29;20070;-89
2022/05/25 02:15:37;;;;;;;9.82;3.20;;;;;;;16.32;100.00;93893.84;4960680;29;20027;-89
2022/05/25 02:18:05;;;;;;;6.30;2.67;;;;;;;16.10;100.00;93902.72;4943909;29;20094;-88
2022/05/25 02:20:55;;;;;;;6.05;3.03;;;;;;;16.14;100.00;93902.88;4960789;29;20038;-88
2022/05/25 02:23:29;;;;;;;10.43;3.33;;;;;;;16.00;100.00;93903.06;4928119;29;20031;-89
2022/05/25 02:26:01;;;;;;;4.97;2.42;;;;;;;16.17;100.00;93903.03;4943767;29;20487;-89
2022/05/25 02:28:42;;;;;;;8.40;2.90;;;;;;;16.30;100.00;93896.00;4943849;29;20034;-89
2022/05/25 02:31:14;;;;;;;8.75;3.13;;;;;;;16.29;100.00;93894.47;4928096;29;20031;-89
2022/05/25 02:33:43;;;;;;;8.23;2.78;;;;;;;16.07;100.00;93896.19;4928207;29;20035;-89
2022/05/25 02:36:09;;;;;;;7.38;3.17;;;;;;;16.03;100.00;93897.94;4927681;29;20035;-89
2022/05/25 02:38:39;;;;;;;18.42;3.15;;;;;;;16.08;100.00;93895.09;4943618;28;20121;-89
2022/05/25 02:41:07;;;;;;;7.18;2.25;;;;;;;16.53;100.00;93893.13;4927370;29;20443;-89
2022/05/25 02:43:37;;;;;;;7.00;2.45;;;;;;;16.91;100.00;93900.31;4927518;29;20456;-89
2022/05/25 02:46:04;;;;;;;5.93;2.55;;;;;;;17.04;100.00;93901.19;4927692;29;20389;-89
2022/05/25 02:48:29;;;;;;;11.38;2.58;;;;;;;16.92;100.00;93899.22;4943540;29;20039;-89
2022/05/25 02:50:55;;;;;;;9.02;2.85;;;;;;;16.80;100.00;93902.53;4939361;28;20035;-89
2022/05/25 02:53:22;;;;;;;11.52;3.15;;;;;;;16.75;100.00;93904.59;4960694;29;20035;-89
2022/05/25 02:55:48;;;;;;;6.22;2.67;;;;;;;16.65;100.00;93906.47;4961754;28;20035;-89
2022/05/25 02:58:13;;;;;;;7.85;2.05;;;;;;;16.54;100.00;93910.56;4942774;28;20093;-89
2022/05/25 03:00:39;;;;;;;9.02;2.67;;;;;;;16.37;100.00;93919.31;4962505;28;20035;-89
2022/05/25 03:03:12;;;;;;;10.95;3.17;;;;;;;16.09;100.00;93917.81;4946720;28;20038;-89
2022/05/25 03:05:42;;;;;;;5.18;2.40;;;;;;;16.03;100.00;93919.06;4946602;28;20034;-89
2022/05/25 03:08:07;;;;;;;10.98;2.80;;;;;;;16.04;100.00;93922.47;4962292;28;20044;-89
2022/05/25 03:10:33;;;;;;;8.55;2.67;;;;;;;15.75;100.00;93924.63;4962524;28;20038;-89
2022/05/25 03:12:58;;;;;;;4.03;2.83;;;;;;;15.83;100.00;93912.50;4979380;28;20026;-89
2022/05/25 03:15:24;;;;;;;8.93;2.95;;;;;;;15.92;100.00;93926.53;4962240;28;20462;-89
2022/05/25 03:17:49;;;;;;;8.85;2.88;;;;;;;15.63;100.00;93927.88;4962099;28;20121;-89
2022/05/25 03:20:15;;;;;;;9.07;2.80;;;;;;;15.68;100.00;93929.59;4962010;28;20031;-89
2022/05/25 03:22:44;;;;;;;12.02;2.92;;;;;;;15.97;100.00;93928.22;4961998;28;20129;-89
2022/05/25 03:25:11;;;;;;;6.30;2.55;;;;;;;15.40;100.00;93933.28;4978960;28;20412;-89
2022/05/25 03:27:37;;;;;;;10.60;2.95;;;;;;;15.44;100.00;93937.94;4961578;28;20054;-89
2022/05/25 03:30:08;;;;;;;4.47;3.03;;;;;;;15.19;100.00;93943.66;4962264;28;20186;-89
2022/05/25 03:32:34;;;;;;;5.88;2.55;;;;;;;15.33;100.00;93946.16;4946104;28;20038;-89
2022/05/25 03:35:02;;;;;;;6.82;2.55;;;;;;;15.50;100.00;93947.28;4945565;28;20440;-89
2022/05/25 03:37:28;;;;;;;8.32;2.80;;;;;;;15.62;100.00;93954.59;4946123;28;20352;-89
2022/05/25 03:39:53;;;;;;;8.02;2.65;;;;;;;15.48;100.00;93952.09;4961749;28;20047;-89
2022/05/25 03:42:19;;;;;;;9.68;2.88;;;;;;;15.33;100.00;93951.44;4978984;28;20046;-89
2022/05/25 03:44:45;;;;;;;14.02;3.05;;;;;;;15.25;100.00;93960.13;4961246;28;20432;-89
2022/05/25 03:47:10;;;;;;;5.20;2.65;;;;;;;15.35;100.00;93957.22;4961121;28;20045;-89
2022/05/25 03:49:36;;;;;;;6.47;2.42;;;;;;;15.40;100.00;93959.69;4978973;28;20066;-89
2022/05/25 03:52:03;;;;;;;5.10;2.55;;;;;;;15.63;100.00;93962.19;4945606;28;20038;-89
2022/05/25 03:54:29;;;;;;;9.25;2.83;;;;;;;15.38;100.00;93956.59;4945586;28;20046;-89
2022/05/25 03:56:54;;;;;;;11.70;2.75;;;;;;;15.30;100.00;93954.69;4945607;28;20063;-89
2022/05/25 03:59:20;;;;;;;4.97;2.67;;;;;;;15.51;100.00;93956.78;4961271;28;20438;-89
2022/05/25 04:01:46;;;;;;;4.72;2.65;;;;;;;15.66;100.00;93958.16;4944334;28;20439;-89
2022/05/25 04:04:11;;;;;;;8.07;2.25;;;;;;;15.66;100.00;93964.25;4978521;28;20096;-88
2022/05/25 04:06:37;;;;;;;13.05;2.97;;;;;;;15.48;100.00;93966.06;4961325;28;20122;-87
2022/05/25 04:09:04;;;;;;;5.47;2.60;;;;;;;15.66;100.00;93961.59;4969771;28;20050;-87
2022/05/25 04:11:29;;;;;;;6.13;2.63;;;;;;;15.78;100.00;93966.25;4957612;29;20031;-87
2022/05/25 04:13:59;;;;;;;6.63;2.60;;;;;;;15.88;100.00;93965.19;4941740;29;20322;-87
2022/05/25 04:16:25;;;;;;;4.05;2.78;;;;;;;16.11;100.00;93962.41;4942692;29;20058;-87
2022/05/25 04:18:50;;;;;;;8.93;2.90;;;;;;;15.43;100.00;93965.44;4941687;29;20118;-88
2022/05/25 04:21:16;;;;;;;16.33;3.30;;;;;;;15.76;100.00;93972.94;4925623;29;20062;-88
2022/05/25 04:23:42;;;;;;;7.60;2.67;;;;;;;15.74;100.00;93975.09;4958714;28;20035;-88
2022/05/25 04:26:07;;;;;;;5.75;2.80;;;;;;;16.00;100.00;93980.47;4958841;28;20031;-88
2022/05/25 04:28:33;;;;;;;5.75;2.90;;;;;;;16.25;100.00;93976.25;4941761;29;20353;-89
2022/05/25 04:31:00;;;;;;;8.77;2.67;;;;;;;15.98;100.00;93979.97;4941654;29;20042;-89
2022/05/25 04:33:29;;;;;;;7.63;2.67;;;;;;;15.80;100.00;93979.94;4926143;29;20045;-89
2022/05/25 04:36:03;;;;;;;7.60;2.60;;;;;;;16.14;100.00;93972.34;4942299;29;20031;-89
2022/05/25 04:38:29;;;;;;;8.10;2.17;;;;;;;16.51;100.00;93972.78;4941825;29;20047;-89
2022/05/25 04:40:54;;;;;;;4.55;2.60;;;;;;;16.81;100.00;93964.94;4942101;29;20118;-88
2022/05/25 04:43:21;;;;;;;7.20;2.30;;;;;;;17.17;100.00;93972.75;4925844;29;20035;-89
2022/05/25 04:45:49;;;;;;;5.82;2.35;;;;;;;17.03;100.00;93973.75;4941733;29;20097;-88
2022/05/25 04:48:19;;;;;;;9.88;2.60;;;;;;;17.42;100.00;93976.38;4958970;29;20039;-88
2022/05/25 04:50:45;;;;;;;6.20;2.30;;;;;;;17.24;100.00;93973.06;4942377;29;20048;-88
2022/05/25 04:53:13;;;;;;;6.72;2.60;;;;;;;16.72;100.00;93974.00;4925552;29;20027;-88
2022/05/25 04:58:37;;;;;;;5.60;2.33;;;;;;;17.34;100.00;93974.56;4974225;28;20093;-87
2022/05/25 05:01:04;;;;;;;6.93;2.72;;;;;;;17.70;100.00;93977.78;4954228;28;20041;-88
2022/05/25 05:03:29;;;;;;;6.28;2.63;;;;;;;17.86;100.00;93984.06;4962731;28;20039;-87
2022/05/25 05:05:56;;;;;;;6.57;2.50;;;;;;;17.46;100.00;93989.75;4982187;28;20313;-87
2022/05/25 05:08:22;;;;;;;9.25;2.97;;;;;;;17.08;100.00;93988.69;4948460;28;20034;-87
2022/05/25 05:10:48;;;;;;;9.35;2.85;;;;;;;17.29;100.00;93988.75;4964209;28;20446;-87
2022/05/25 05:13:17;;;;;;;8.63;2.70;;;;;;;16.84;100.00;93987.31;4964599;28;20030;-88
2022/05/25 05:15:45;;;;;;;6.90;2.63;;;;;;;17.13;100.00;93974.50;4948394;28;20364;-91
2022/05/25 05:18:12;;;;;;;7.85;2.55;;;;;;;17.51;100.00;93986.94;4948357;28;20301;-92
2022/05/25 05:20:39;;;;;;;6.68;2.67;;;;;;;17.88;100.00;93981.09;4948721;28;20031;-91
2022/05/25 05:23:08;;;;;;;4.57;2.58;;;;;;;17.98;100.00;93986.00;4948363;28;20069;-92
2022/05/25 05:25:34;;;;;;;7.95;2.67;;;;;;;17.75;100.00;93986.31;4948358;28;20058;-91
2022/05/25 05:28:18;;;;;;;5.28;2.65;;;;;;;17.63;100.00;93996.84;4948203;28;20031;-93
2022/05/25 05:30:49;;;;;;;11.43;3.08;;;;;;;17.42;100.00;94000.19;4964217;28;20031;-92
2022/05/25 05:33:15;;;;;;;5.25;2.58;;;;;;;17.32;100.00;93998.69;4948179;28;20023;-92
2022/05/25 05:35:42;;;;;;;6.88;2.65;;;;;;;17.25;100.00;93995.78;4948383;28;20324;-92
2022/05/25 05:38:08;;;;;;;5.85;2.80;;;;;;;17.31;100.00;93994.50;4947907;28;20027;-92
2022/05/25 05:40:34;;;;;;;6.70;2.83;;;;;;;18.08;100.00;93998.88;4947875;28;20034;-92
2022/05/25 05:43:02;;;;;;;5.78;2.80;;;;;;;18.31;100.00;94003.88;4947710;28;20066;-91
2022/05/25 05:45:30;;;;;;;8.70;2.55;;;;;;;18.28;100.00;94007.16;4947579;28;20097;-92
2022/05/25 05:48:06;;;;;;;5.28;2.85;;;;;;;18.63;100.00;94008.72;4947385;28;20333;-92
2022/05/25 05:50:38;;;;;;;12.15;2.70;;;;;;;18.11;100.00;94009.94;4948107;28;20118;-92
2022/05/25 05:53:05;;;;;;;7.35;2.50;;;;;;;17.76;100.00;94000.31;4947936;28;20030;-91
2022/05/25 05:55:31;;;;;;;8.93;2.63;;;;;;;18.13;100.00;94005.88;4947415;28;20125;-91
2022/05/25 05:57:56;;;;;;;6.10;2.67;;;;;;;19.06;100.00;94007.53;4947688;28;20037;-92
2022/05/25 06:00:22;;;;;;;6.95;2.72;;;;;;;19.49;100.00;94007.31;4947347;28;20129;-92
2022/05/25 06:02:50;;;;;;;8.20;2.95;;;;;;;19.67;100.00;94018.50;4947555;28;20035;-91
2022/05/25 06:05:15;;;;;;;7.75;2.78;;;;;;;19.97;100.00;94015.59;4963610;28;20031;-92
2022/05/25 06:07:41;;;;;;;8.43;2.95;;;;;;;19.96;100.00;94027.34;4947351;28;20499;-93
2022/05/25 06:10:07;;;;;;;6.35;2.40;;;;;;;19.92;100.00;94027.25;4963123;28;20035;-92
2022/05/25 06:12:44;;;;;;;8.60;2.70;;;;;;;20.24;100.00;94036.50;4947048;28;20491;-92
2022/05/25 06:20:38;;;;;;;8.27;2.42;;;;;;;21.02;100.00;94042.41;4965514;28;20038;-93
2022/05/25 06:23:07;;;;;;;6.10;2.30;;;;;;;21.56;100.00;94039.50;4947049;28;20027;-92
2022/05/25 06:25:32;;;;;;;8.43;2.55;;;;;;;21.85;100.00;94051.63;4946574;28;20039;-93
2022/05/25 06:28:00;;;;;;;4.93;2.17;;;;;;;22.01;100.00;94045.47;4963228;28;20061;-92
2022/05/25 06:30:25;;;;;;;4.80;2.08;;;;;;;22.15;92.88;94047.69;4947096;28;20030;-92
2022/05/25 06:32:51;;;;;;;6.53;2.03;;;;;;;21.83;100.00;94053.88;4946879;28;20081;-92
2022/05/25 06:35:17;;;;;;;12.23;2.83;;;;;;;20.69;100.00;94059.41;4946795;28;20023;-92
2022/05/25 06:37:42;;;;;;;131.30;8.75;;;;;;;20.61;100.00;94055.00;4946782;28;20093;-92
2022/05/25 06:40:11;;;;;;;10.50;2.58;;;;;;;20.63;100.00;94066.84;4946456;28;20033;-93
2022/05/25 06:42:39;;;;;;;6.10;2.45;;;;;;;21.53;100.00;94064.97;4962673;28;20034;-93
2022/05/25 06:45:08;;;;;;;5.80;2.63;;;;;;;20.65;100.00;94077.16;4947026;28;20030;-93
2022/05/25 06:47:35;;;;;;;12.93;2.88;;;;;;;20.01;100.00;94060.91;4947227;28;20054;-92
2022/05/25 06:50:04;;;;;;;7.18;2.92;;;;;;;20.86;100.00;94068.25;4946780;28;20066;-94
2022/05/25 06:52:34;;;;;;;7.25;2.28;;;;;;;20.74;100.00;94069.03;4946804;28;20396;-93
2022/05/25 06:55:00;;;;;;;9.85;2.80;;;;;;;21.21;100.00;94072.94;4946766;28;20035;-92
2022/05/25 06:57:26;;;;;;;9.00;2.88;;;;;;;20.91;100.00;94070.66;4962219;28;20138;-92
2022/05/25 06:59:52;;;;;;;10.20;2.78;;;;;;;21.17;100.00;94075.53;4946053;28;20046;-92
2022/05/25 07:02:18;;;;;;;7.47;2.70;;;;;;;21.78;100.00;94077.34;4946015;28;20041;-92
2022/05/25 07:04:43;;;;;;;7.78;2.63;;;;;;;21.54;100.00;94082.50;4962132;28;20035;-93
2022/05/25 07:07:09;;;;;;;5.47;2.55;;;;;;;21.68;100.00;94089.31;4962254;28;20038;-91
2022/05/25 07:09:38;;;;;;;8.45;2.40;;;;;;;21.80;100.00;94086.53;4962363;28;20134;-92
2022/05/25 07:12:04;;;;;;;7.20;2.60;;;;;;;22.04;100.00;94082.13;4962375;28;20038;-93
2022/05/25 07:14:29;;;;;;;9.90;2.65;;;;;;;21.33;100.00;94086.19;4961690;28;20428;-92
2022/05/25 07:16:55;;;;;;;4.13;2.30;;;;;;;21.40;100.00;94090.91;4946041;28;20030;-93
2022/05/25 07:19:21;;;;;;;8.52;2.55;;;;;;;21.93;100.00;94095.22;4962132;28;20038;-92
2022/05/25 07:21:48;;;;;;;6.43;2.28;;;;;;;21.99;100.00;94093.06;4961710;28;20041;-92
2022/05/25 07:24:14;;;;;;;7.88;2.83;;;;;;;22.03;100.00;94097.38;4961731;28;20512;-92
2022/05/25 07:26:39;;;;;;;11.68;3.17;;;;;;;22.21;100.00;94094.31;4945909;28;20121;-92
2022/05/25 07:29:05;;;;;;;9.82;2.80;;;;;;;22.45;100.00;94098.63;4961885;28;20070;-92
2022/05/25 07:31:42;;;;;;;7.80;2.38;;;;;;;21.91;97.34;94105.47;4945812;28;20058;-92
2022/05/25 07:34:13;;;;;;;6.18;1.90;;;;;;;22.41;100.00;94107.69;4961628;28;20429;-92
2022/05/25 07:36:40;;;;;;;10.50;2.58;;;;;;;22.63;100.00;94108.94;4979253;28;20129;-93
2022/05/25 07:39:08;;;;;;;5.07;2.42;;;;;;;22.35;100.00;94103.75;4961464;28;20356;-92
2022/05/25 07:41:36;;;;;;;5.82;2.60;;;;;;;22.13;100.00;94111.28;4961739;28;20035;-92
2022/05/25 07:44:02;;;;;;;4.50;2.40;;;;;;;22.18;100.00;94116.38;4961118;28;20035;-92
2022/05/25 07:46:31;;;;;;;3.97;2.15;;;;;;;22.11;100.00;94116.97;4961585;28;20042;-92
2022/05/25 07:48:59;;;;;;;6.85;2.28;;;;;;;22.29;100.00;94119.25;4945969;28;20037;-91
2022/05/25 07:51:26;;;;;;;5.95;2.40;;;;;;;22.39;100.00;94116.06;4961291;28;20027;-91
2022/05/25 07:53:57;;;;;;;9.43;2.60;;;;;;;22.04;93.88;94116.81;4961106;28;20109;-93
2022/05/25 07:56:29;;;;;;;4.63;2.20;;;;;;;22.93;92.08;94115.63;4945429;28;20035;-91
2022/05/25 07:58:56;;;;;;;8.05;2.40;;;;;;;23.25;100.00;94116.22;4961484;28;20038;-92
2022/05/25 08:05:43;;;;;;;5.05;2.40;;;;;;;23.23;100.00;94115.78;4961386;28;20027;-92
2022/05/25 08:06:57;;;;;;;7.43;2.72;;;;;;;23.26;100.00;94114.31;4963656;28;20038;-92
2022/05/25 08:09:23;;;;;;;7.82;2.40;;;;;;;23.18;100.00;94118.75;4961001;28;20027;-93
2022/05/25 08:11:51;;;;;;;8.93;2.40;;;;;;;22.46;94.38;94120.78;4945082;28;20038;-92
2022/05/25 08:14:17;;;;;;;14.18;2.40;;;;;;;22.78;100.00;94120.69;4945290;28;20034;-92
2022/05/25 08:16:42;;;;;;;5.70;2.70;;;;;;;22.66;100.00;94126.16;4961422;28;20030;-93
2022/05/25 08:19:10;;;;;;;8.13;2.60;;;;;;;22.75;100.00;94137.41;4960920;28;20409;-92
2022/05/25 08:21:35;;;;;;;9.13;2.42;;;;;;;23.01;100.00;94125.28;4945245;28;20042;-93
2022/05/25 08:24:01;;;;;;;8.52;2.58;;;;;;;23.41;100.00;94144.78;4945202;28;20037;-92
2022/05/25 08:26:26;;;;;;;8.70;2.50;;;;;;;23.28;98.50;94142.25;4944979;28;20105;-93
2022/05/25 08:28:52;;;;;;;11.07;2.70;;;;;;;23.35;100.00;94146.97;4978465;28;20442;-93
2022/05/25 08:31:17;;;;;;;8.65;3.00;;;;;;;22.82;89.21;94147.47;4944986;28;20034;-92
2022/05/25 08:33:43;;;;;;;8.32;2.35;;;;;;;23.64;100.00;94146.66;4961090;28;20121;-92
2022/05/25 08:36:11;;;;;;;5.53;2.53;;;;;;;23.70;99.30;94153.28;4960825;28;20062;-93
2022/05/25 08:38:37;;;;;;;6.28;2.50;;;;;;;23.99;94.70;94151.06;4977141;28;20351;-92
2022/05/25 08:41:02;;;;;;;7.32;3.00;;;;;;;23.96;100.00;94151.78;4960775;28;20030;-93
2022/05/25 08:43:47;;;;;;;10.32;3.00;;;;;;;24.21;98.67;94151.41;4960475;28;20027;-93
2022/05/25 08:46:18;;;;;;;9.57;2.60;;;;;;;23.95;100.00;94151.00;4960558;28;20053;-93
2022/05/25 08:48:44;;;;;;;9.50;2.60;;;;;;;23.73;100.00;94161.34;4944663;28;20027;-92
2022/05/25 08:51:14;;;;;;;9.50;2.75;;;;;;;24.06;100.00;94161.16;4960677;28;20395;-92
2022/05/25 08:53:40;;;;;;;9.80;2.90;;;;;;;23.77;100.00;94164.09;4961019;28;20069;-92
2022/05/25 08:56:27;;;;;;;8.90;2.80;;;;;;;23.43;100.00;94150.53;4960889;28;20317;-93
2022/05/25 08:59:21;;;;;;;11.75;2.88;;;;;;;23.39;100.00;94163.81;4945014;28;20035;-93
2022/05/25 09:01:57;;;;;;;8.07;2.60;;;;;;;23.48;100.00;94160.94;4977653;28;20034;-92
2022/05/25 09:04:53;;;;;;;8.35;3.15;;;;;;;23.23;100.00;94161.19;4944399;28;20392;-92
2022/05/25 09:07:35;;;;;;;8.00;2.80;;;;;;;23.62;100.00;94163.09;4944884;28;20344;-93
2022/05/25 09:10:01;;;;;;;8.87;3.40;;;;;;;24.10;100.00;94168.09;4946031;28;20031;-93
2022/05/25 09:12:35;;;;;;;9.50;3.40;;;;;;;23.99;100.00;94167.13;4960548;28;20045;-93
2022/05/25 09:15:08;;;;;;;10.02;3.10;;;;;;;24.09;100.00;94163.84;4960604;28;20035;-92
2022/05/25 09:18:07;;;;;;;8.73;3.70;;;;;;;23.89;100.00;94162.38;4944703;28;20035;-92
2022/05/25 09:20:44;;;;;;;12.48;3.67;;;;;;;23.93;98.79;94169.31;4944764;28;20030;-93
2022/05/25 09:23:14;;;;;;;15.38;3.83;;;;;;;23.50;100.00;94176.63;4960167;28;20090;-93
2022/05/25 09:25:40;;;;;;;7.22;3.58;;;;;;;24.14;100.00;94170.81;4945033;28;20038;-93
2022/05/25 09:28:12;;;;;;;17.80;4.35;;;;;;;24.82;100.00;94175.63;4960218;28;20066;-93
2022/05/25 09:30:41;;;;;;;9.75;3.85;;;;;;;25.48;93.55;94185.97;4944581;28;20429;-93
2022/05/25 09:33:31;;;;;;;15.95;5.40;;;;;;;25.23;88.98;94178.38;4960194;28;20027;-93
2022/05/25 09:36:04;;;;;;;16.40;5.68;;;;;;;25.11;95.59;94187.44;4960030;28;20043;-92
2022/05/25 09:38:56;;;;;;;14.65;6.85;;;;;;;24.77;100.00;94194.69;4960310;28;20027;-92
2022/05/25 09:41:24;;;;;;;13.48;6.15;;;;;;;24.60;96.02;94195.94;4944334;28;20026;-92
2022/05/25 09:43:55;;;;;;;21.02;7.53;;;;;;;24.63;96.28;94203.28;4960075;28;20095;-92
2022/05/25 09:46:39;;;;;;;17.48;6.35;;;;;;;24.59;100.00;94202.44;4960501;28;20109;-93
2022/05/25 09:49:07;;;;;;;15.43;6.05;;;;;;;24.30;98.86;94202.81;4945471;28;20034;-92
2022/05/25 09:51:36;;;;;;;16.60;7.47;;;;;;;24.11;100.00;94198.28;4963484;28;20403;-91
2022/05/25 09:54:13;;;;;;;25.02;11.98;;;;;;;23.37;100.00;94192.03;4947600;28;20329;-93
2022/05/25 09:56:43;;;;;;;27.42;10.70;;;;;;;23.66;100.00;94189.88;4981325;28;20041;-93
2022/05/25 09:59:39;;;;;;;21.75;9.43;;;;;;;23.64;100.00;94200.16;4947630;28;20074;-93
2022/05/25 10:02:30;;;;;;;20.17;9.15;;;;;;;23.51;100.00;94200.31;4963279;28;20078;-93
2022/05/25 10:05:10;;;;;;;20.20;9.52;;;;;;;23.67;100.00;94210.13;4968927;28;20050;-92
2022/05/25 10:07:42;;;;;;;21.40;9.02;;;;;;;23.90;100.00;94217.41;4947835;28;20388;-91
2022/05/25 10:10:10;;;;;;;24.25;10.05;;;;;;;23.67;100.00;94208.25;4947445;28;20034;-91
2022/05/25 10:12:39;;;;;;;18.50;8.95;;;;;;;24.14;100.00;94217.09;4947355;28;20041;-92
2022/05/25 10:15:08;;;;;;;17.30;6.78;;;;;;;24.34;100.00;94219.69;4963142;28;20038;-93
2022/05/25 10:17:41;;;;;;;19.30;8.60;;;;;;;24.38;100.00;94215.16;4963284;28;20030;-93
2022/05/25 10:20:30;;;;;;;24.40;7.68;;;;;;;24.27;100.00;94220.34;4963417;28;20034;-92
2022/05/25 10:23:12;;;;;;;24.83;8.95;;;;;;;24.13;100.00;94217.44;4947318;28;20090;-92
2022/05/25 10:25:54;;;;;;;24.48;8.82;;;;;;;23.63;100.00;94220.78;4948210;28;20491;-93
2022/05/25 10:28:22;;;;;;;21.48;8.80;;;;;;;22.93;100.00;94227.81;4980102;28;20039;-92
2022/05/25 10:36:53;;;;;;;24.70;9.38;;;;;;;23.72;100.00;94215.97;4965352;28;20070;-92
2022/05/25 10:39:32;;;;;;;15.02;7.90;;;;;;;23.83;100.00;94226.88;4962772;28;20038;-92
2022/05/25 10:42:09;;;;;;;19.67;9.95;;;;;;;23.86;100.00;94228.84;4957043;29;20041;-92
2022/05/25 10:44:41;;;;;;;17.70;9.55;;;;;;;23.85;100.00;94240.66;4943441;29;20433;-92
2022/05/25 10:47:17;;;;;;;18.35;7.82;;;;;;;24.19;100.00;94233.97;4927693;29;20512;-91
2022/05/25 10:49:42;;;;;;;20.40;7.55;;;;;;;24.05;100.00;94237.97;4943325;29;20443;-91
2022/05/25 10:52:18;;;;;;;27.00;7.70;;;;;;;23.65;100.00;94236.47;4927761;29;20031;-92
2022/05/25 10:54:55;;;;;;;16.35;6.38;;;;;;;24.46;100.00;94242.81;4927671;29;20023;-91
2022/05/25 10:57:58;;;;;;;16.48;6.28;;;;;;;25.24;100.00;94243.50;4928921;29;20074;-92
2022/05/25 11:00:31;;;;;;;14.18;7.43;;;;;;;25.40;100.00;94243.31;4942459;29;20031;-92
2022/05/25 11:03:26;;;;;;;15.85;6.97;;;;;;;25.90;100.00;94240.44;4943412;29;20039;-92
2022/05/25 11:05:55;;;;;;;20.02;8.77;;;;;;;24.41;100.00;94243.13;4927072;29;20392;-94
2022/05/25 11:08:33;;;;;;;23.73;10.52;;;;;;;23.92;100.00;94236.56;4943400;29;20077;-92
2022/05/25 11:11:31;;;;;;;23.63;7.80;;;;;;;24.99;100.00;94242.06;4958339;28;20332;-92
2022/05/25 11:14:01;;;;;;;16.80;9.18;;;;;;;24.88;100.00;94246.50;4928618;28;20046;-93
2022/05/25 11:16:39;;;;;;;28.80;10.45;;;;;;;24.70;100.00;94247.00;4962127;28;20023;-92
2022/05/25 11:19:35;;;;;;;15.50;7.05;;;;;;;25.18;100.00;94247.63;4962172;28;20027;-92
2022/05/25 11:22:26;;;;;;;25.85;9.13;;;;;;;24.60;100.00;94254.84;4961990;28;20031;-93
2022/05/25 11:25:08;;;;;;;17.73;8.93;;;;;;;24.76;100.00;94255.53;4961755;28;20113;-92
2022/05/25 11:27:50;;;;;;;17.15;8.50;;;;;;;25.70;100.00;94245.22;4945581;28;20089;-92
2022/05/25 11:30:23;;;;;;;21.77;8.88;;;;;;;25.06;100.00;94243.28;4946189;28;20096;-92
2022/05/25 11:33:26;;;;;;;15.17;7.70;;;;;;;25.49;100.00;94241.13;4961652;28;20023;-92
2022/05/25 11:36:16;;;;;;;12.68;7.15;;;;;;;24.86;100.00;94243.41;4961596;28;20356;-90
2022/05/25 11:39:14;;;;;;;19.13;7.50;;;;;;;25.12;100.00;94244.53;4961861;28;20027;-92
2022/05/25 11:42:01;;;;;;;20.08;6.63;;;;;;;25.76;100.00;94246.41;4945809;28;20424;-92
2022/05/25 11:44:52;;;;;;;16.25;7.47;;;;;;;26.29;94.43;94258.03;4961822;28;20033;-92
2022/05/25 11:48:13;;;;;;;12.30;5.40;;;;;;;25.08;100.00;94257.09;4978770;28;20023;-92
2022/05/25 11:50:58;;;;;;;17.30;6.00;;;;;;;26.32;90.00;94254.63;4938421;29;20457;-92
2022/05/25 11:53:36;;;;;;;13.40;5.93;;;;;;;26.49;94.55;94260.50;4978482;28;20023;-92
2022/05/25 11:56:05;;;;;;;14.77;7.32;;;;;;;25.07;100.00;94263.59;4978574;28;20339;-90
2022/05/25 11:58:58;;;;;;;14.73;6.05;;;;;;;24.64;100.00;94269.84;4961428;28;20030;-89
2022/05/25 12:01:52;;;;;;;13.65;6.47;;;;;;;25.15;100.00;94265.22;4978541;28;20023;-92
2022/05/25 12:04:21;;;;;;;16.27;6.40;;;;;;;23.62;100.00;94258.56;4961154;28;20483;-92